sensor_id;sensor_type;location;lat;lon;timestamp;pressure;altitude;pressure_sealevel;temperature;humidity
77526;BME280;66627;29.424;-98.496;2023-04-15T00:01:16;97951.89;;;26.70;42.56
77526;BME280;66627;29.424;-98.496;2023-04-15T00:03:41;97956.45;;;25.66;44.10
77526;BME280;66627;29.424;-98.496;2023-04-15T00:06:07;97961.74;;;27.10;42.21
77526;BME280;66627;29.424;-98.496;2023-04-15T00:08:32;97976.97;;;26.20;43.57
77526;BME280;66627;29.424;-98.496;2023-04-15T00:10:58;97983.43;;;26.21;43.25
77526;BME280;66627;29.424;-98.496;2023-04-15T00:13:23;97986.56;;;27.08;42.74
77526;BME280;66627;29.424;-98.496;2023-04-15T00:15:48;97984.48;;;27.29;41.98
77526;BME280;66627;29.424;-98.496;2023-04-15T00:18:14;97994.19;;;26.81;42.52
77526;BME280;66627;29.424;-98.496;2023-04-15T00:20:39;97995.03;;;26.24;43.67
77526;BME280;66627;29.424;-98.496;2023-04-15T00:23:04;97992.63;;;26.69;42.75
77526;BME280;66627;29.424;-98.496;2023-04-15T00:25:30;97987.35;;;27.36;41.84
77526;BME280;66627;29.424;-98.496;2023-04-15T00:27:56;97980.62;;;27.37;41.92
77526;BME280;66627;29.424;-98.496;2023-04-15T00:30:21;97981.21;;;26.53;43.00
77526;BME280;66627;29.424;-98.496;2023-04-15T00:32:47;97985.12;;;26.16;43.62
77526;BME280;66627;29.424;-98.496;2023-04-15T00:35:12;97983.98;;;25.11;45.62
77526;BME280;66627;29.424;-98.496;2023-04-15T00:37:37;97981.48;;;25.22;45.93
77526;BME280;66627;29.424;-98.496;2023-04-15T00:40:04;97984.73;;;25.64;45.27
77526;BME280;66627;29.424;-98.496;2023-04-15T00:42:29;97988.07;;;25.88;45.30
77526;BME280;66627;29.424;-98.496;2023-04-15T00:44:54;97998.60;;;27.22;43.15
77526;BME280;66627;29.424;-98.496;2023-04-15T00:47:18;97994.67;;;27.46;42.44
77526;BME280;66627;29.424;-98.496;2023-04-15T00:49:44;97994.75;;;27.34;42.49
77526;BME280;66627;29.424;-98.496;2023-04-15T00:52:10;97998.53;;;25.66;44.76
77526;BME280;66627;29.424;-98.496;2023-04-15T00:54:35;97997.53;;;26.28;43.79
77526;BME280;66627;29.424;-98.496;2023-04-15T00:57:01;97999.80;;;26.51;43.64
77526;BME280;66627;29.424;-98.496;2023-04-15T00:59:28;98005.61;;;27.10;43.31
77526;BME280;66627;29.424;-98.496;2023-04-15T01:01:52;98012.26;;;27.14;43.03
77526;BME280;66627;29.424;-98.496;2023-04-15T01:04:17;98007.79;;;27.05;43.06
77526;BME280;66627;29.424;-98.496;2023-04-15T01:06:43;98006.33;;;26.80;43.65
77526;BME280;66627;29.424;-98.496;2023-04-15T01:09:08;98005.00;;;27.02;43.41
77526;BME280;66627;29.424;-98.496;2023-04-15T01:11:34;98009.48;;;26.75;43.97
77526;BME280;66627;29.424;-98.496;2023-04-15T01:13:59;98012.30;;;27.45;42.93
77526;BME280;66627;29.424;-98.496;2023-04-15T01:16:24;98014.25;;;27.54;43.28
77526;BME280;66627;29.424;-98.496;2023-04-15T01:18:50;98014.78;;;27.32;43.20
77526;BME280;66627;29.424;-98.496;2023-04-15T01:21:15;98018.90;;;27.00;43.77
77526;BME280;66627;29.424;-98.496;2023-04-15T01:23:40;98019.25;;;26.98;43.90
77526;BME280;66627;29.424;-98.496;2023-04-15T01:26:06;98018.99;;;26.70;44.28
77526;BME280;66627;29.424;-98.496;2023-04-15T01:28:31;98025.10;;;26.50;45.04
77526;BME280;66627;29.424;-98.496;2023-04-15T01:31:06;98027.34;;;25.93;46.13
77526;BME280;66627;29.424;-98.496;2023-04-15T01:33:23;98027.14;;;25.69;47.54
77526;BME280;66627;29.424;-98.496;2023-04-15T01:35:47;98031.46;;;25.04;48.80
77526;BME280;66627;29.424;-98.496;2023-04-15T01:38:13;98043.69;;;25.49;48.23
77526;BME280;66627;29.424;-98.496;2023-04-15T01:40:38;98048.54;;;25.97;47.57
77526;BME280;66627;29.424;-98.496;2023-04-15T01:43:03;98051.31;;;25.79;48.02
77526;BME280;66627;29.424;-98.496;2023-04-15T01:45:29;98052.42;;;25.94;47.90
77526;BME280;66627;29.424;-98.496;2023-04-15T01:47:54;98056.05;;;25.06;49.47
77526;BME280;66627;29.424;-98.496;2023-04-15T01:50:20;98059.79;;;25.35;49.04
77526;BME280;66627;29.424;-98.496;2023-04-15T01:52:44;98067.45;;;25.35;49.16
77526;BME280;66627;29.424;-98.496;2023-04-15T01:55:11;98070.94;;;25.85;48.38
77526;BME280;66627;29.424;-98.496;2023-04-15T01:57:35;98071.03;;;26.12;48.04
77526;BME280;66627;29.424;-98.496;2023-04-15T02:00:00;98072.96;;;24.90;50.32
77526;BME280;66627;29.424;-98.496;2023-04-15T02:02:25;98073.88;;;24.81;50.73
77526;BME280;66627;29.424;-98.496;2023-04-15T02:04:51;98077.84;;;23.61;54.15
77526;BME280;66627;29.424;-98.496;2023-04-15T02:07:16;98082.11;;;25.03;51.64
77526;BME280;66627;29.424;-98.496;2023-04-15T02:09:42;98082.86;;;24.22;52.71
77526;BME280;66627;29.424;-98.496;2023-04-15T02:12:08;98084.00;;;25.10;51.78
77526;BME280;66627;29.424;-98.496;2023-04-15T02:14:33;98089.72;;;24.99;52.19
77526;BME280;66627;29.424;-98.496;2023-04-15T02:16:59;98091.38;;;25.17;51.94
77526;BME280;66627;29.424;-98.496;2023-04-15T02:19:24;98099.50;;;24.88;52.29
77526;BME280;66627;29.424;-98.496;2023-04-15T02:21:50;98105.24;;;25.07;51.96
77526;BME280;66627;29.424;-98.496;2023-04-15T02:24:14;98110.58;;;24.98;52.75
77526;BME280;66627;29.424;-98.496;2023-04-15T02:26:40;98118.21;;;25.23;52.33
77526;BME280;66627;29.424;-98.496;2023-04-15T02:29:06;98121.00;;;24.80;53.11
77526;BME280;66627;29.424;-98.496;2023-04-15T02:31:32;98131.73;;;25.18;52.49
77526;BME280;66627;29.424;-98.496;2023-04-15T02:33:57;98141.42;;;24.71;53.25
77526;BME280;66627;29.424;-98.496;2023-04-15T02:36:22;98144.72;;;24.64;52.98
77526;BME280;66627;29.424;-98.496;2023-04-15T02:38:48;98142.92;;;24.33;54.08
77526;BME280;66627;29.424;-98.496;2023-04-15T02:41:13;98143.86;;;24.02;54.64
77526;BME280;66627;29.424;-98.496;2023-04-15T02:43:39;98138.31;;;24.15;55.35
77526;BME280;66627;29.424;-98.496;2023-04-15T02:46:05;98136.23;;;24.26;54.21
77526;BME280;66627;29.424;-98.496;2023-04-15T02:48:30;98146.04;;;23.77;55.08
77526;BME280;66627;29.424;-98.496;2023-04-15T02:53:21;98137.77;;;23.87;55.07
77526;BME280;66627;29.424;-98.496;2023-04-15T02:55:46;98145.36;;;24.04;55.12
77526;BME280;66627;29.424;-98.496;2023-04-15T02:58:12;98162.98;;;24.10;54.47
77526;BME280;66627;29.424;-98.496;2023-04-15T03:00:37;98180.03;;;24.31;54.61
77526;BME280;66627;29.424;-98.496;2023-04-15T03:03:03;98209.28;;;23.48;55.86
77526;BME280;66627;29.424;-98.496;2023-04-15T03:05:27;98226.48;;;23.99;55.30
77526;BME280;66627;29.424;-98.496;2023-04-15T03:07:53;98230.60;;;23.96;54.82
77526;BME280;66627;29.424;-98.496;2023-04-15T03:10:18;98234.48;;;24.48;54.24
77526;BME280;66627;29.424;-98.496;2023-04-15T03:12:43;98235.61;;;24.78;54.09
77526;BME280;66627;29.424;-98.496;2023-04-15T03:15:09;98242.75;;;23.63;55.39
77526;BME280;66627;29.424;-98.496;2023-04-15T03:17:34;98240.67;;;23.68;55.23
77526;BME280;66627;29.424;-98.496;2023-04-15T03:20:01;98238.27;;;23.23;56.57
77526;BME280;66627;29.424;-98.496;2023-04-15T03:22:24;98238.35;;;23.82;55.51
77526;BME280;66627;29.424;-98.496;2023-04-15T03:24:50;98235.68;;;23.55;55.72
77526;BME280;66627;29.424;-98.496;2023-04-15T03:27:15;98229.78;;;23.52;56.10
77526;BME280;66627;29.424;-98.496;2023-04-15T03:29:40;98230.56;;;23.75;55.72
77526;BME280;66627;29.424;-98.496;2023-04-15T03:32:05;98236.62;;;24.03;55.11
77526;BME280;66627;29.424;-98.496;2023-04-15T03:34:31;98241.26;;;24.24;55.15
77526;BME280;66627;29.424;-98.496;2023-04-15T03:37:05;98243.51;;;23.78;56.06
77526;BME280;66627;29.424;-98.496;2023-04-15T03:39:22;98242.70;;;24.09;55.01
77526;BME280;66627;29.424;-98.496;2023-04-15T03:41:48;98243.76;;;24.31;54.64
77526;BME280;66627;29.424;-98.496;2023-04-15T03:44:13;98250.38;;;23.96;55.23
77526;BME280;66627;29.424;-98.496;2023-04-15T03:46:38;98248.23;;;24.21;54.78
77526;BME280;66627;29.424;-98.496;2023-04-15T03:49:05;98250.53;;;24.05;55.08
77526;BME280;66627;29.424;-98.496;2023-04-15T03:51:29;98245.24;;;23.72;55.50
77526;BME280;66627;29.424;-98.496;2023-04-15T03:53:54;98239.58;;;24.13;54.79
77526;BME280;66627;29.424;-98.496;2023-04-15T03:56:20;98240.65;;;24.40;54.17
77526;BME280;66627;29.424;-98.496;2023-04-15T03:58:45;98233.17;;;23.24;55.94
77526;BME280;66627;29.424;-98.496;2023-04-15T04:01:10;98235.85;;;23.26;56.03
77526;BME280;66627;29.424;-98.496;2023-04-15T04:03:36;98246.10;;;23.50;56.00
77526;BME280;66627;29.424;-98.496;2023-04-15T04:06:01;98244.04;;;23.46;55.65
77526;BME280;66627;29.424;-98.496;2023-04-15T04:08:26;98247.88;;;23.96;54.58
77526;BME280;66627;29.424;-98.496;2023-04-15T04:10:52;98244.33;;;23.84;55.33
77526;BME280;66627;29.424;-98.496;2023-04-15T04:13:17;98247.66;;;23.44;55.61
77526;BME280;66627;29.424;-98.496;2023-04-15T04:15:43;98256.42;;;23.79;55.36
77526;BME280;66627;29.424;-98.496;2023-04-15T04:18:08;98258.17;;;23.56;55.92
77526;BME280;66627;29.424;-98.496;2023-04-15T04:20:33;98265.96;;;23.58;56.38
77526;BME280;66627;29.424;-98.496;2023-04-15T04:23:03;98269.38;;;24.27;54.95
77526;BME280;66627;29.424;-98.496;2023-04-15T04:25:29;98264.48;;;23.56;55.41
77526;BME280;66627;29.424;-98.496;2023-04-15T04:27:50;98265.84;;;23.64;56.20
77526;BME280;66627;29.424;-98.496;2023-04-15T04:30:15;98270.77;;;23.32;56.40
77526;BME280;66627;29.424;-98.496;2023-04-15T04:32:41;98273.66;;;24.06;55.10
77526;BME280;66627;29.424;-98.496;2023-04-15T04:35:07;98257.19;;;23.98;55.02
77526;BME280;66627;29.424;-98.496;2023-04-15T04:37:32;98257.10;;;23.65;55.73
77526;BME280;66627;29.424;-98.496;2023-04-15T04:39:58;98260.38;;;23.89;55.39
77526;BME280;66627;29.424;-98.496;2023-04-15T04:42:24;98259.76;;;23.81;55.92
77526;BME280;66627;29.424;-98.496;2023-04-15T04:44:49;98266.51;;;23.67;56.26
77526;BME280;66627;29.424;-98.496;2023-04-15T04:47:14;98272.90;;;24.33;54.42
77526;BME280;66627;29.424;-98.496;2023-04-15T04:49:39;98270.88;;;24.29;54.52
77526;BME280;66627;29.424;-98.496;2023-04-15T04:52:04;98271.23;;;24.88;53.38
77526;BME280;66627;29.424;-98.496;2023-04-15T04:54:29;98268.62;;;24.76;53.47
77526;BME280;66627;29.424;-98.496;2023-04-15T04:56:54;98264.24;;;24.98;53.10
77526;BME280;66627;29.424;-98.496;2023-04-15T04:59:20;98263.95;;;24.86;52.97
77526;BME280;66627;29.424;-98.496;2023-04-15T05:01:46;98254.95;;;24.82;53.39
77526;BME280;66627;29.424;-98.496;2023-04-15T05:04:11;98254.87;;;25.00;52.63
77526;BME280;66627;29.424;-98.496;2023-04-15T05:06:37;98248.05;;;24.56;53.37
77526;BME280;66627;29.424;-98.496;2023-04-15T05:09:02;98248.86;;;24.54;53.32
77526;BME280;66627;29.424;-98.496;2023-04-15T05:11:27;98254.02;;;24.79;53.31
77526;BME280;66627;29.424;-98.496;2023-04-15T05:13:53;98265.02;;;24.55;53.78
77526;BME280;66627;29.424;-98.496;2023-04-15T05:16:19;98273.56;;;24.83;52.86
77526;BME280;66627;29.424;-98.496;2023-04-15T05:18:44;98280.15;;;25.19;52.15
77526;BME280;66627;29.424;-98.496;2023-04-15T05:21:09;98275.69;;;23.93;54.90
77526;BME280;66627;29.424;-98.496;2023-04-15T05:23:35;98275.02;;;24.63;53.72
77526;BME280;66627;29.424;-98.496;2023-04-15T05:26:00;98284.81;;;24.19;53.90
77526;BME280;66627;29.424;-98.496;2023-04-15T05:28:25;98303.35;;;23.79;54.79
77526;BME280;66627;29.424;-98.496;2023-04-15T05:30:51;98321.48;;;24.26;53.93
77526;BME280;66627;29.424;-98.496;2023-04-15T05:33:16;98336.09;;;24.05;54.89
77526;BME280;66627;29.424;-98.496;2023-04-15T05:35:41;98345.98;;;23.79;54.40
77526;BME280;66627;29.424;-98.496;2023-04-15T05:38:07;98347.89;;;24.12;54.39
77526;BME280;66627;29.424;-98.496;2023-04-15T05:40:33;98348.56;;;24.99;52.79
77526;BME280;66627;29.424;-98.496;2023-04-15T05:42:58;98359.80;;;24.50;53.49
77526;BME280;66627;29.424;-98.496;2023-04-15T05:45:24;98370.49;;;24.85;53.12
77526;BME280;66627;29.424;-98.496;2023-04-15T05:47:48;98373.92;;;24.13;54.25
77526;BME280;66627;29.424;-98.496;2023-04-15T05:50:13;98388.69;;;24.73;53.13
77526;BME280;66627;29.424;-98.496;2023-04-15T05:52:39;98426.61;;;24.74;53.72
77526;BME280;66627;29.424;-98.496;2023-04-15T05:55:05;98453.57;;;24.35;53.78
77526;BME280;66627;29.424;-98.496;2023-04-15T05:57:31;98455.69;;;24.42;53.85
77526;BME280;66627;29.424;-98.496;2023-04-15T05:59:55;98449.90;;;24.71;53.30
77526;BME280;66627;29.424;-98.496;2023-04-15T06:02:21;98458.43;;;24.78;53.11
77526;BME280;66627;29.424;-98.496;2023-04-15T06:04:47;98474.44;;;24.40;53.84
77526;BME280;66627;29.424;-98.496;2023-04-15T06:07:13;98489.56;;;24.30;54.60
77526;BME280;66627;29.424;-98.496;2023-04-15T06:09:37;98470.91;;;23.88;54.75
77526;BME280;66627;29.424;-98.496;2023-04-15T06:12:03;98447.13;;;22.86;41.85
77526;BME280;66627;29.424;-98.496;2023-04-15T06:14:28;98465.46;;;22.99;43.69
77526;BME280;66627;29.424;-98.496;2023-04-15T06:16:54;98496.60;;;23.22;38.52
77526;BME280;66627;29.424;-98.496;2023-04-15T06:19:19;98498.67;;;22.47;37.43
77526;BME280;66627;29.424;-98.496;2023-04-15T06:21:44;98476.55;;;21.99;39.41
77526;BME280;66627;29.424;-98.496;2023-04-15T06:24:09;98445.36;;;20.77;43.28
77526;BME280;66627;29.424;-98.496;2023-04-15T06:26:34;98427.17;;;21.32;47.54
77526;BME280;66627;29.424;-98.496;2023-04-15T06:29:00;98410.67;;;21.17;47.66
77526;BME280;66627;29.424;-98.496;2023-04-15T06:31:25;98436.50;;;20.62;48.48
77526;BME280;66627;29.424;-98.496;2023-04-15T06:33:50;98501.46;;;20.01;51.11
77526;BME280;66627;29.424;-98.496;2023-04-15T06:36:15;98531.08;;;20.13;50.75
77526;BME280;66627;29.424;-98.496;2023-04-15T06:38:41;98529.84;;;19.93;51.80
77526;BME280;66627;29.424;-98.496;2023-04-15T06:41:06;98493.58;;;19.04;53.04
77526;BME280;66627;29.424;-98.496;2023-04-15T06:43:30;98434.30;;;19.43;51.00
77526;BME280;66627;29.424;-98.496;2023-04-15T06:45:56;98354.21;;;19.01;55.07
77526;BME280;66627;29.424;-98.496;2023-04-15T06:48:22;98322.51;;;19.52;54.55
77526;BME280;66627;29.424;-98.496;2023-04-15T06:50:46;98218.30;;;19.49;54.23
77526;BME280;66627;29.424;-98.496;2023-04-15T06:53:12;98117.60;;;14.16;65.06
77526;BME280;66627;29.424;-98.496;2023-04-15T06:55:38;98184.17;;;16.29;62.05
77526;BME280;66627;29.424;-98.496;2023-04-15T06:58:03;98296.74;;;15.95;59.83
77526;BME280;66627;29.424;-98.496;2023-04-15T07:00:28;98307.98;;;17.84;58.41
77526;BME280;66627;29.424;-98.496;2023-04-15T07:02:54;98309.63;;;17.03;59.02
77526;BME280;66627;29.424;-98.496;2023-04-15T07:05:19;98294.29;;;17.96;57.62
77526;BME280;66627;29.424;-98.496;2023-04-15T07:07:44;98282.66;;;18.48;56.52
77526;BME280;66627;29.424;-98.496;2023-04-15T07:10:09;98294.69;;;18.21;56.39
77526;BME280;66627;29.424;-98.496;2023-04-15T07:12:34;98287.14;;;17.33;57.36
77526;BME280;66627;29.424;-98.496;2023-04-15T07:15:00;98278.08;;;17.59;56.02
77526;BME280;66627;29.424;-98.496;2023-04-15T07:17:25;98279.51;;;18.41;58.02
77526;BME280;66627;29.424;-98.496;2023-04-15T07:19:50;98288.45;;;18.27;55.55
77526;BME280;66627;29.424;-98.496;2023-04-15T07:22:15;98288.39;;;18.17;57.79
77526;BME280;66627;29.424;-98.496;2023-04-15T07:24:41;98296.18;;;19.20;57.27
77526;BME280;66627;29.424;-98.496;2023-04-15T07:27:06;98308.55;;;19.45;56.46
77526;BME280;66627;29.424;-98.496;2023-04-15T07:29:32;98299.60;;;19.44;56.03
77526;BME280;66627;29.424;-98.496;2023-04-15T07:31:57;98279.04;;;19.40;53.63
77526;BME280;66627;29.424;-98.496;2023-04-15T07:34:22;98283.56;;;17.33;57.20
77526;BME280;66627;29.424;-98.496;2023-04-15T07:36:47;98284.32;;;16.64;59.20
77526;BME280;66627;29.424;-98.496;2023-04-15T07:39:12;98278.81;;;18.32;56.92
77526;BME280;66627;29.424;-98.496;2023-04-15T07:41:37;98285.08;;;17.87;58.46
77526;BME280;66627;29.424;-98.496;2023-04-15T07:44:02;98295.49;;;18.65;56.86
77526;BME280;66627;29.424;-98.496;2023-04-15T07:46:28;98295.93;;;18.32;57.57
77526;BME280;66627;29.424;-98.496;2023-04-15T07:48:53;98293.44;;;18.85;56.23
77526;BME280;66627;29.424;-98.496;2023-04-15T07:51:19;98282.20;;;17.17;58.39
77526;BME280;66627;29.424;-98.496;2023-04-15T07:53:43;98284.61;;;18.08;56.66
77526;BME280;66627;29.424;-98.496;2023-04-15T07:56:08;98278.30;;;17.90;57.15
77526;BME280;66627;29.424;-98.496;2023-04-15T07:58:33;98280.63;;;18.35;56.53
77526;BME280;66627;29.424;-98.496;2023-04-15T08:00:59;98281.35;;;18.83;55.05
77526;BME280;66627;29.424;-98.496;2023-04-15T08:03:24;98273.21;;;18.71;56.81
77526;BME280;66627;29.424;-98.496;2023-04-15T08:05:49;98271.69;;;19.10;56.11
77526;BME280;66627;29.424;-98.496;2023-04-15T08:08:14;98261.15;;;19.00;55.58
77526;BME280;66627;29.424;-98.496;2023-04-15T08:10:39;98270.26;;;18.41;55.96
77526;BME280;66627;29.424;-98.496;2023-04-15T08:13:05;98279.38;;;17.79;56.43
77526;BME280;66627;29.424;-98.496;2023-04-15T08:15:30;98281.48;;;17.23;59.10
77526;BME280;66627;29.424;-98.496;2023-04-15T08:17:55;98291.30;;;18.55;56.88
77526;BME280;66627;29.424;-98.496;2023-04-15T08:20:20;98286.31;;;18.26;56.33
77526;BME280;66627;29.424;-98.496;2023-04-15T08:22:45;98275.50;;;16.72;59.71
77526;BME280;66627;29.424;-98.496;2023-04-15T08:25:10;98272.31;;;18.26;57.74
77526;BME280;66627;29.424;-98.496;2023-04-15T08:27:36;98264.05;;;18.07;57.66
77526;BME280;66627;29.424;-98.496;2023-04-15T08:30:00;98259.73;;;17.29;58.76
77526;BME280;66627;29.424;-98.496;2023-04-15T08:32:26;98255.28;;;17.94;56.89
77526;BME280;66627;29.424;-98.496;2023-04-15T08:34:51;98259.01;;;17.85;57.54
77526;BME280;66627;29.424;-98.496;2023-04-15T08:37:16;98267.28;;;18.12;57.57
77526;BME280;66627;29.424;-98.496;2023-04-15T08:39:41;98269.53;;;18.20;56.70
77526;BME280;66627;29.424;-98.496;2023-04-15T08:42:12;98270.52;;;18.81;56.98
77526;BME280;66627;29.424;-98.496;2023-04-15T08:44:34;98273.40;;;19.73;56.32
77526;BME280;66627;29.424;-98.496;2023-04-15T08:47:00;98273.37;;;19.48;55.89
77526;BME280;66627;29.424;-98.496;2023-04-15T08:49:26;98270.71;;;19.68;55.52
77526;BME280;66627;29.424;-98.496;2023-04-15T08:51:47;98278.56;;;19.22;55.92
77526;BME280;66627;29.424;-98.496;2023-04-15T08:54:12;98293.40;;;18.07;56.97
77526;BME280;66627;29.424;-98.496;2023-04-15T08:56:39;98288.12;;;18.79;54.93
77526;BME280;66627;29.424;-98.496;2023-04-15T08:59:03;98279.62;;;18.22;57.35
77526;BME280;66627;29.424;-98.496;2023-04-15T09:01:28;98270.92;;;19.26;56.28
77526;BME280;66627;29.424;-98.496;2023-04-15T09:03:53;98269.64;;;19.75;55.82
77526;BME280;66627;29.424;-98.496;2023-04-15T09:06:19;98272.42;;;19.82;55.94
77526;BME280;66627;29.424;-98.496;2023-04-15T09:08:43;98272.43;;;19.59;56.11
77526;BME280;66627;29.424;-98.496;2023-04-15T09:11:08;98271.70;;;19.79;55.30
77526;BME280;66627;29.424;-98.496;2023-04-15T09:13:33;98269.69;;;19.06;56.20
77526;BME280;66627;29.424;-98.496;2023-04-15T09:16:01;98273.32;;;19.07;54.91
77526;BME280;66627;29.424;-98.496;2023-04-15T09:18:28;98279.60;;;18.59;56.27
77526;BME280;66627;29.424;-98.496;2023-04-15T09:20:53;98284.14;;;19.35;55.11
77526;BME280;66627;29.424;-98.496;2023-04-15T09:23:15;98276.61;;;19.21;55.37
77526;BME280;66627;29.424;-98.496;2023-04-15T09:25:41;98282.92;;;19.76;55.35
77526;BME280;66627;29.424;-98.496;2023-04-15T09:28:05;98282.67;;;19.27;55.91
77526;BME280;66627;29.424;-98.496;2023-04-15T09:30:31;98274.22;;;16.24;61.20
77526;BME280;66627;29.424;-98.496;2023-04-15T09:32:57;98271.22;;;16.28;62.17
77526;BME280;66627;29.424;-98.496;2023-04-15T09:35:22;98266.53;;;17.75;59.78
77526;BME280;66627;29.424;-98.496;2023-04-15T09:37:47;98267.82;;;19.20;57.52
77526;BME280;66627;29.424;-98.496;2023-04-15T09:40:12;98273.25;;;18.96;57.27
77526;BME280;66627;29.424;-98.496;2023-04-15T09:42:36;98275.66;;;19.37;56.46
77526;BME280;66627;29.424;-98.496;2023-04-15T09:45:07;98274.88;;;18.54;57.08
77526;BME280;66627;29.424;-98.496;2023-04-15T09:47:28;98275.95;;;18.69;57.28
77526;BME280;66627;29.424;-98.496;2023-04-15T09:49:56;98274.33;;;19.54;56.14
77526;BME280;66627;29.424;-98.496;2023-04-15T09:52:17;98275.79;;;20.03;55.98
77526;BME280;66627;29.424;-98.496;2023-04-15T09:54:46;98274.07;;;19.96;55.48
77526;BME280;66627;29.424;-98.496;2023-04-15T09:57:07;98277.39;;;20.30;55.19
77526;BME280;66627;29.424;-98.496;2023-04-15T09:59:32;98276.76;;;20.16;54.48
77526;BME280;66627;29.424;-98.496;2023-04-15T10:01:57;98282.30;;;18.15;56.78
77526;BME280;66627;29.424;-98.496;2023-04-15T10:04:23;98275.19;;;17.62;59.53
77526;BME280;66627;29.424;-98.496;2023-04-15T10:06:48;98279.56;;;18.83;57.72
77526;BME280;66627;29.424;-98.496;2023-04-15T10:09:13;98279.43;;;19.88;56.23
77526;BME280;66627;29.424;-98.496;2023-04-15T10:11:38;98275.79;;;19.58;55.86
77526;BME280;66627;29.424;-98.496;2023-04-15T10:14:04;98283.70;;;19.80;56.14
77526;BME280;66627;29.424;-98.496;2023-04-15T10:16:32;98285.20;;;20.18;55.29
77526;BME280;66627;29.424;-98.496;2023-04-15T10:18:55;98287.91;;;19.56;55.76
77526;BME280;66627;29.424;-98.496;2023-04-15T10:21:19;98285.04;;;20.44;55.34
77526;BME280;66627;29.424;-98.496;2023-04-15T10:23:45;98285.62;;;20.15;55.04
77526;BME280;66627;29.424;-98.496;2023-04-15T10:26:11;98287.55;;;18.66;57.56
77526;BME280;66627;29.424;-98.496;2023-04-15T10:28:36;98288.48;;;18.98;57.81
77526;BME280;66627;29.424;-98.496;2023-04-15T10:31:00;98293.02;;;19.54;57.15
77526;BME280;66627;29.424;-98.496;2023-04-15T10:33:28;98288.58;;;20.02;56.14
77526;BME280;66627;29.424;-98.496;2023-04-15T10:35:52;98291.51;;;20.12;56.32
77526;BME280;66627;29.424;-98.496;2023-04-15T10:38:33;98295.62;;;19.89;55.78
77526;BME280;66627;29.424;-98.496;2023-04-15T10:40:42;98304.14;;;19.51;57.53
77526;BME280;66627;29.424;-98.496;2023-04-15T10:43:07;98303.36;;;20.56;55.88
77526;BME280;66627;29.424;-98.496;2023-04-15T10:45:35;98307.88;;;19.26;57.69
77526;BME280;66627;29.424;-98.496;2023-04-15T10:48:00;98305.93;;;19.69;57.21
77526;BME280;66627;29.424;-98.496;2023-04-15T10:50:25;98317.96;;;19.49;58.28
77526;BME280;66627;29.424;-98.496;2023-04-15T10:52:51;98326.29;;;19.65;58.33
77526;BME280;66627;29.424;-98.496;2023-04-15T10:55:15;98329.27;;;20.19;57.13
77526;BME280;66627;29.424;-98.496;2023-04-15T10:57:39;98327.64;;;20.61;56.41
77526;BME280;66627;29.424;-98.496;2023-04-15T11:00:09;98321.57;;;20.93;55.22
77526;BME280;66627;29.424;-98.496;2023-04-15T11:02:38;98321.76;;;20.68;55.09
77526;BME280;66627;29.424;-98.496;2023-04-15T11:04:55;98320.25;;;20.57;55.00
77526;BME280;66627;29.424;-98.496;2023-04-15T11:09:43;98317.35;;;21.00;54.72
77526;BME280;66627;29.424;-98.496;2023-04-15T11:12:11;98317.28;;;20.29;56.15
77526;BME280;66627;29.424;-98.496;2023-04-15T11:14:35;98323.59;;;20.88;55.32
77526;BME280;66627;29.424;-98.496;2023-04-15T11:17:04;98321.48;;;20.77;55.01
77526;BME280;66627;29.424;-98.496;2023-04-15T11:19:28;98316.96;;;20.60;56.37
77526;BME280;66627;29.424;-98.496;2023-04-15T11:21:50;98312.65;;;20.66;55.84
77526;BME280;66627;29.424;-98.496;2023-04-15T11:24:23;98310.92;;;20.55;56.03
77526;BME280;66627;29.424;-98.496;2023-04-15T11:26:40;98312.76;;;19.53;58.17
77526;BME280;66627;29.424;-98.496;2023-04-15T11:29:06;98303.97;;;20.84;56.60
77526;BME280;66627;29.424;-98.496;2023-04-15T11:31:32;98312.35;;;19.61;58.25
77526;BME280;66627;29.424;-98.496;2023-04-15T11:33:58;98323.03;;;18.00;62.54
77526;BME280;66627;29.424;-98.496;2023-04-15T11:36:24;98319.13;;;17.47;63.82
77526;BME280;66627;29.424;-98.496;2023-04-15T11:38:47;98325.38;;;18.90;61.82
77526;BME280;66627;29.424;-98.496;2023-04-15T11:41:13;98331.65;;;19.67;59.61
77526;BME280;66627;29.424;-98.496;2023-04-15T11:43:38;98331.94;;;20.23;58.86
77526;BME280;66627;29.424;-98.496;2023-04-15T11:46:05;98346.53;;;19.33;60.73
77526;BME280;66627;29.424;-98.496;2023-04-15T11:48:30;98349.15;;;19.37;60.03
77526;BME280;66627;29.424;-98.496;2023-04-15T11:51:02;98360.31;;;20.20;58.57
77526;BME280;66627;29.424;-98.496;2023-04-15T11:53:20;98369.88;;;20.43;58.58
77526;BME280;66627;29.424;-98.496;2023-04-15T11:55:47;98373.97;;;21.04;56.90
77526;BME280;66627;29.424;-98.496;2023-04-15T11:58:12;98373.04;;;20.53;57.80
77526;BME280;66627;29.424;-98.496;2023-04-15T12:00:37;98375.89;;;20.50;57.19
77526;BME280;66627;29.424;-98.496;2023-04-15T12:03:12;98382.09;;;20.33;58.08
77526;BME280;66627;29.424;-98.496;2023-04-15T12:05:27;98387.81;;;21.22;56.68
77526;BME280;66627;29.424;-98.496;2023-04-15T12:07:58;98391.05;;;21.22;55.68
77526;BME280;66627;29.424;-98.496;2023-04-15T12:10:18;98393.60;;;20.64;57.08
77526;BME280;66627;29.424;-98.496;2023-04-15T12:12:48;98393.81;;;21.07;55.60
77526;BME280;66627;29.424;-98.496;2023-04-15T12:15:09;98393.91;;;21.81;54.72
77526;BME280;66627;29.424;-98.496;2023-04-15T12:17:35;98398.15;;;21.71;54.65
77526;BME280;66627;29.424;-98.496;2023-04-15T12:19:59;98405.47;;;21.66;54.96
77526;BME280;66627;29.424;-98.496;2023-04-15T12:22:24;98409.08;;;21.70;55.02
77526;BME280;66627;29.424;-98.496;2023-04-15T12:24:54;98409.75;;;20.94;56.57
77526;BME280;66627;29.424;-98.496;2023-04-15T12:27:16;98408.92;;;21.86;54.83
77526;BME280;66627;29.424;-98.496;2023-04-15T12:29:41;98412.61;;;21.88;54.19
77526;BME280;66627;29.424;-98.496;2023-04-15T12:32:07;98415.81;;;20.94;56.37
77526;BME280;66627;29.424;-98.496;2023-04-15T12:34:34;98418.78;;;21.70;55.14